Ripon, Canada
Current Conditions -  °F | °C
As of 3:30 PM on Saturday 25 Oct 2014 (Local Time) from CYND Reporting Station
Light Rain Light Rain  
Wind Chill: 52°   Ceiling: 2000
Heat Index: 52°   Visibility: 2mi
Dew Point: 50°   Wind: 8mph
Humidity: 94%   Direction: 120°ESE
Pressure: 29.47"   Gusts: NA
Location:  45.78°N, 75.1°W
Report Text: CYND 251930Z 12007KT 2SM -RA BR OVC020 11/10 A2947 RMK SC8 PRESFR SLP982
Loading
Personal Weather Stations






























Interactive Weather Map
Tropical Storm Tracking
New forecast layout! Learn more

10-Day Weather Forecast

Advertisements
Track Severe Weather on mobile